createdAt,value
2019-05-10T00:00:05.577Z,11.27
2019-05-10T00:01:05.550Z,11.27
2019-05-10T00:02:05.525Z,11.25
2019-05-10T00:03:06.249Z,11.24
2019-05-10T00:04:05.476Z,11.24
2019-05-10T00:05:05.515Z,11.21
2019-05-10T00:06:05.464Z,11.21
2019-05-10T00:07:05.440Z,11.24
2019-05-10T00:08:05.558Z,11.24
2019-05-10T00:09:06.255Z,11.24
2019-05-10T00:10:05.407Z,11.21
2019-05-10T00:11:05.481Z,11.21
2019-05-10T00:12:06.217Z,11.20
2019-05-10T00:13:05.429Z,11.20
2019-05-10T00:14:05.468Z,11.17
2019-05-10T00:15:05.363Z,11.16
2019-05-10T00:16:05.354Z,11.16
2019-05-10T00:17:05.335Z,11.14
2019-05-10T00:18:05.330Z,11.13
2019-05-10T00:19:05.324Z,11.11
2019-05-10T00:20:05.315Z,11.09
2019-05-10T00:21:05.295Z,11.07
2019-05-10T00:22:05.273Z,11.03
2019-05-10T00:23:05.272Z,11.02
2019-05-10T00:24:05.275Z,10.99
2019-05-10T00:25:05.436Z,10.98
2019-05-10T00:26:05.233Z,10.96
2019-05-10T00:27:05.229Z,10.95
2019-05-10T00:28:05.232Z,10.94
2019-05-10T00:29:05.230Z,10.96
2019-05-10T00:30:05.204Z,10.96
2019-05-10T00:31:05.177Z,10.98
2019-05-10T00:32:05.166Z,10.99
2019-05-10T00:33:05.163Z,10.99
2019-05-10T00:34:05.138Z,11.01
2019-05-10T00:35:05.695Z,11.01
2019-05-10T00:36:05.115Z,11.02
2019-05-10T00:37:05.117Z,11.02
2019-05-10T00:38:05.095Z,11.03
2019-05-10T00:39:05.104Z,11.06
2019-05-10T00:40:05.117Z,11.06
2019-05-10T00:41:05.064Z,11.07
2019-05-10T00:42:05.055Z,11.09
2019-05-10T00:43:05.064Z,11.07
2019-05-10T00:44:05.034Z,11.09
2019-05-10T00:45:05.037Z,11.10
2019-05-10T00:46:05.007Z,11.10
2019-05-10T00:47:05.014Z,11.10
2019-05-10T00:48:05.172Z,11.11
2019-05-10T00:49:05.004Z,11.13
2019-05-10T00:50:04.984Z,11.13
2019-05-10T00:51:04.954Z,11.13
2019-05-10T00:52:04.972Z,11.13
2019-05-10T00:53:04.954Z,11.13
2019-05-10T00:54:04.958Z,11.13
2019-05-10T00:55:17.930Z,11.14
2019-05-10T00:56:05.914Z,11.14
2019-05-10T00:57:04.900Z,11.14
2019-05-10T00:58:04.936Z,11.16
2019-05-10T00:59:04.882Z,11.14
2019-05-10T01:00:04.883Z,11.16
2019-05-10T01:01:04.847Z,11.16
2019-05-10T01:02:04.839Z,11.14
2019-05-10T01:03:04.852Z,11.16
2019-05-10T01:04:04.813Z,11.14
2019-05-10T01:05:05.287Z,11.16
2019-05-10T01:06:04.895Z,11.13
2019-05-10T01:07:04.832Z,11.14
2019-05-10T01:08:04.764Z,11.14
2019-05-10T01:09:04.766Z,11.13
2019-05-10T01:10:04.965Z,11.14
2019-05-10T01:11:04.745Z,11.13
2019-05-10T01:12:04.732Z,11.13
2019-05-10T01:13:04.839Z,11.14
2019-05-10T01:14:04.706Z,11.14
2019-05-10T01:15:04.705Z,11.13
2019-05-10T01:16:04.704Z,11.13
2019-05-10T01:17:04.711Z,11.13
2019-05-10T01:18:04.655Z,11.13
2019-05-10T01:19:04.643Z,11.14
2019-05-10T01:20:04.640Z,11.14
2019-05-10T01:21:04.884Z,11.14
2019-05-10T01:22:04.634Z,11.14
2019-05-10T01:23:04.626Z,11.13
2019-05-10T01:24:04.626Z,11.11
2019-05-10T01:25:04.605Z,11.10
2019-05-10T01:26:04.603Z,11.07
2019-05-10T01:27:04.615Z,11.07
2019-05-10T01:28:04.568Z,11.03
2019-05-10T01:29:04.536Z,11.02
2019-05-10T01:30:04.840Z,10.99
2019-05-10T01:31:04.572Z,10.96
2019-05-10T01:32:04.515Z,10.94
2019-05-10T01:33:04.493Z,10.89
2019-05-10T01:34:04.480Z,10.88
2019-05-10T01:35:04.505Z,10.83
2019-05-10T01:36:04.516Z,10.80
2019-05-10T01:37:04.462Z,10.77
2019-05-10T01:38:04.431Z,10.74
2019-05-10T01:39:04.438Z,10.70
2019-05-10T01:40:04.436Z,10.66
2019-05-10T01:41:04.423Z,10.66
2019-05-10T01:42:04.403Z,10.60
2019-05-10T01:43:04.511Z,10.59
2019-05-10T01:44:04.395Z,10.56
2019-05-10T01:45:04.443Z,10.53
2019-05-10T01:46:04.352Z,10.52
2019-05-10T01:47:04.382Z,10.51
2019-05-10T01:48:04.325Z,10.51
2019-05-10T01:49:04.313Z,10.47
2019-05-10T01:50:04.323Z,10.46
2019-05-10T01:51:04.325Z,10.44
2019-05-10T01:52:04.293Z,10.40
2019-05-10T01:53:04.288Z,10.40
2019-05-10T01:54:04.275Z,10.39
2019-05-10T01:55:04.252Z,10.36
2019-05-10T01:56:04.313Z,10.34
2019-05-10T01:57:04.252Z,10.33
2019-05-10T01:58:04.219Z,10.33
2019-05-10T01:59:04.203Z,10.32
2019-05-10T02:00:04.207Z,10.32
2019-05-10T02:01:04.215Z,10.30
2019-05-10T02:02:04.212Z,10.26
2019-05-10T02:03:04.211Z,10.24
2019-05-10T02:04:04.154Z,10.24
2019-05-10T02:05:04.132Z,10.21
2019-05-10T02:06:04.141Z,10.18
2019-05-10T02:07:04.157Z,10.17
2019-05-10T02:08:04.112Z,10.15
2019-05-10T02:09:04.093Z,10.14
2019-05-10T02:10:04.087Z,10.14
2019-05-10T02:11:04.073Z,10.14
2019-05-10T02:12:04.089Z,10.12
2019-05-10T02:13:04.043Z,10.14
2019-05-10T02:14:04.074Z,10.15
2019-05-10T02:15:04.024Z,10.17
2019-05-10T02:16:04.035Z,10.18
2019-05-10T02:17:04.022Z,10.18
2019-05-10T02:18:03.998Z,10.19
2019-05-10T02:19:03.983Z,10.22
2019-05-10T02:20:03.989Z,10.22
2019-05-10T02:21:03.965Z,10.22
2019-05-10T02:22:03.997Z,10.24
2019-05-10T02:23:03.947Z,10.25
2019-05-10T02:24:03.948Z,10.25
2019-05-10T02:25:03.922Z,10.24
2019-05-10T02:26:09.563Z,10.26
2019-05-10T02:27:04.925Z,10.26
2019-05-10T02:28:03.923Z,10.28
2019-05-10T02:29:04.143Z,10.26
2019-05-10T02:30:03.872Z,10.25
2019-05-10T02:31:03.850Z,10.24
2019-05-10T02:32:03.864Z,10.22
2019-05-10T02:33:03.862Z,10.19
2019-05-10T02:34:03.872Z,10.17
2019-05-10T02:35:03.803Z,10.15
2019-05-10T02:36:03.797Z,10.10
2019-05-10T02:37:03.790Z,10.07
2019-05-10T02:38:03.899Z,10.04
2019-05-10T02:39:03.807Z,10.01
2019-05-10T02:40:03.789Z,10.03
2019-05-10T02:41:03.768Z,10.00
2019-05-10T02:42:04.534Z,9.99
2019-05-10T02:43:04.819Z,9.99
2019-05-10T02:44:03.714Z,9.97
2019-05-10T02:45:03.736Z,9.97
2019-05-10T02:46:03.806Z,9.96
2019-05-10T02:47:03.685Z,9.94
2019-05-10T02:48:03.701Z,9.93
2019-05-10T02:49:03.697Z,9.93
2019-05-10T02:50:03.645Z,9.93
2019-05-10T02:51:03.644Z,9.94
2019-05-10T02:52:03.664Z,9.94
2019-05-10T02:53:03.649Z,9.94
2019-05-10T02:54:03.629Z,9.96
2019-05-10T02:55:03.633Z,9.94
2019-05-10T02:56:03.589Z,9.94
2019-05-10T02:57:03.571Z,9.93
2019-05-10T02:58:03.577Z,9.93
2019-05-10T02:59:03.562Z,9.93
2019-05-10T03:00:03.540Z,9.93
2019-05-10T03:01:03.538Z,9.94
2019-05-10T03:02:03.524Z,9.91
2019-05-10T03:03:03.510Z,9.91
2019-05-10T03:04:03.538Z,9.91
2019-05-10T03:05:03.505Z,9.91
2019-05-10T03:06:03.499Z,9.93
2019-05-10T03:07:03.471Z,9.93
2019-05-10T03:08:03.481Z,9.94
2019-05-10T03:09:03.460Z,9.93
2019-05-10T03:10:03.430Z,9.94
2019-05-10T03:11:03.451Z,9.94
2019-05-10T03:12:03.406Z,9.93
2019-05-10T03:13:03.420Z,9.96
2019-05-10T03:14:03.437Z,9.96
2019-05-10T03:15:03.401Z,9.99
2019-05-10T03:16:03.393Z,9.99
2019-05-10T03:17:03.369Z,9.97
2019-05-10T03:18:03.341Z,9.97
2019-05-10T03:19:03.361Z,9.97
2019-05-10T03:20:03.328Z,9.97
2019-05-10T03:21:03.338Z,9.94
2019-05-10T03:22:03.304Z,9.94
2019-05-10T03:23:03.280Z,9.93
2019-05-10T03:24:03.316Z,9.89
2019-05-10T03:25:03.296Z,9.88
2019-05-10T03:26:03.293Z,9.85
2019-05-10T03:27:03.241Z,9.82
2019-05-10T03:28:03.271Z,9.81
2019-05-10T03:29:03.236Z,9.78
2019-05-10T03:30:03.223Z,9.76
2019-05-10T03:31:03.213Z,9.76
2019-05-10T03:32:03.205Z,9.71
2019-05-10T03:33:03.227Z,9.70
2019-05-10T03:34:03.190Z,9.68
2019-05-10T03:35:03.175Z,9.64
2019-05-10T03:36:03.154Z,9.64
2019-05-10T03:37:03.507Z,9.61
2019-05-10T03:38:03.159Z,9.63
2019-05-10T03:39:03.122Z,9.61
2019-05-10T03:40:03.123Z,9.60
2019-05-10T03:41:03.114Z,9.56
2019-05-10T03:42:03.089Z,9.50
2019-05-10T03:43:03.094Z,9.48
2019-05-10T03:44:03.072Z,9.48
2019-05-10T03:45:03.067Z,9.45
2019-05-10T03:46:03.036Z,9.42
2019-05-10T03:47:03.021Z,9.40
2019-05-10T03:48:03.004Z,9.40
2019-05-10T03:49:03.010Z,9.43
2019-05-10T03:50:03.022Z,9.42
2019-05-10T03:51:03.024Z,9.42
2019-05-10T03:52:02.981Z,9.38
2019-05-10T03:53:02.963Z,9.35
2019-05-10T03:54:02.967Z,9.34
2019-05-10T03:55:02.953Z,9.31
2019-05-10T03:56:02.920Z,9.28
2019-05-10T03:57:12.955Z,9.27
2019-05-10T03:58:03.919Z,9.25
2019-05-10T03:59:02.890Z,9.24
2019-05-10T04:00:02.901Z,9.23
2019-05-10T04:01:02.876Z,9.23
2019-05-10T04:02:02.884Z,9.20
2019-05-10T04:03:02.865Z,9.16
2019-05-10T04:04:02.832Z,9.16
2019-05-10T04:05:02.875Z,9.15
2019-05-10T04:06:02.822Z,9.13
2019-05-10T04:07:03.062Z,9.12
2019-05-10T04:08:02.810Z,9.10
2019-05-10T04:09:02.779Z,9.06
2019-05-10T04:10:02.796Z,9.05
2019-05-10T04:11:02.779Z,9.05
2019-05-10T04:12:02.748Z,9.05
2019-05-10T04:13:02.738Z,9.05
2019-05-10T04:14:02.738Z,9.05
2019-05-10T04:15:02.771Z,9.02
2019-05-10T04:16:02.824Z,9.04
2019-05-10T04:17:02.692Z,9.05
2019-05-10T04:18:02.692Z,9.02
2019-05-10T04:19:02.684Z,9.02
2019-05-10T04:20:02.687Z,9.02
2019-05-10T04:21:02.674Z,9.01
2019-05-10T04:22:02.649Z,9.02
2019-05-10T04:23:02.653Z,9.02
2019-05-10T04:24:02.629Z,9.01
2019-05-10T04:25:02.603Z,9.02
2019-05-10T04:26:02.635Z,9.02
2019-05-10T04:27:02.614Z,9.04
2019-05-10T04:28:02.579Z,9.06
2019-05-10T04:29:02.590Z,9.09
2019-05-10T04:30:02.553Z,9.12
2019-05-10T04:31:02.564Z,9.12
2019-05-10T04:32:02.519Z,9.12
2019-05-10T04:33:02.537Z,9.15
2019-05-10T04:34:02.511Z,9.13
2019-05-10T04:35:02.479Z,9.18
2019-05-10T04:36:02.489Z,9.18
2019-05-10T04:37:02.501Z,9.20
2019-05-10T04:38:02.490Z,9.25
2019-05-10T04:39:02.563Z,9.28
2019-05-10T04:40:02.675Z,9.31
2019-05-10T04:41:02.483Z,9.35
2019-05-10T04:42:02.426Z,9.40
2019-05-10T04:43:02.409Z,9.45
2019-05-10T04:44:02.399Z,9.49
2019-05-10T04:45:02.383Z,9.57
2019-05-10T04:46:02.529Z,9.64
2019-05-10T04:47:02.390Z,9.71
2019-05-10T04:48:02.355Z,9.75
2019-05-10T04:49:02.372Z,9.81
2019-05-10T04:50:02.950Z,9.86
2019-05-10T04:51:02.357Z,9.91
2019-05-10T04:52:02.347Z,9.96
2019-05-10T04:53:02.297Z,10.03
2019-05-10T04:54:02.327Z,10.06
2019-05-10T04:55:02.278Z,10.12
2019-05-10T04:56:02.274Z,10.14
2019-05-10T04:57:02.331Z,10.19
2019-05-10T04:58:02.238Z,10.24
2019-05-10T04:59:02.300Z,10.30
2019-05-10T05:00:02.577Z,10.36
2019-05-10T05:01:02.207Z,10.39
2019-05-10T05:02:02.228Z,10.37
2019-05-10T05:03:02.239Z,10.42
2019-05-10T05:04:02.167Z,10.42
2019-05-10T05:05:02.157Z,10.43
2019-05-10T05:06:02.166Z,10.46
2019-05-10T05:07:02.168Z,10.47
2019-05-10T05:08:02.138Z,10.47
2019-05-10T05:09:02.122Z,10.47
2019-05-10T05:10:02.097Z,10.47
2019-05-10T05:11:02.091Z,10.52
2019-05-10T05:12:02.119Z,10.53
2019-05-10T05:13:02.110Z,10.56
2019-05-10T05:14:02.153Z,10.55
2019-05-10T05:15:02.087Z,10.55
2019-05-10T05:16:02.048Z,10.55
2019-05-10T05:17:02.044Z,10.55
2019-05-10T05:18:02.026Z,10.53
2019-05-10T05:19:02.017Z,10.53
2019-05-10T05:20:02.101Z,10.55
2019-05-10T05:21:01.997Z,10.58
2019-05-10T05:22:02.017Z,10.60
2019-05-10T05:23:01.966Z,10.65
2019-05-10T05:24:01.996Z,10.71
2019-05-10T05:25:03.825Z,10.81
2019-05-10T05:26:01.934Z,10.95
2019-05-10T05:27:01.937Z,11.06
2019-05-10T05:28:07.919Z,11.19
2019-05-10T05:29:02.897Z,11.32
2019-05-10T05:30:01.914Z,11.46
2019-05-10T05:31:02.623Z,11.54
2019-05-10T05:32:03.658Z,11.61
2019-05-10T05:33:01.856Z,11.67
2019-05-10T05:34:04.813Z,11.68
2019-05-10T05:35:01.886Z,11.71
2019-05-10T05:36:02.494Z,11.71
2019-05-10T05:37:01.875Z,11.72
2019-05-10T05:38:01.857Z,11.72
2019-05-10T05:39:01.798Z,11.71
2019-05-10T05:40:01.884Z,11.72
2019-05-10T05:41:01.777Z,11.72
2019-05-10T05:42:01.790Z,11.74
2019-05-10T05:43:02.749Z,11.74
2019-05-10T05:44:02.725Z,11.78
2019-05-10T05:45:01.732Z,11.83
2019-05-10T05:46:01.779Z,11.83
2019-05-10T05:47:04.598Z,11.87
2019-05-10T05:48:01.699Z,11.93
2019-05-10T05:49:01.747Z,12.02
2019-05-10T05:50:01.683Z,12.11
2019-05-10T05:51:01.663Z,12.19
2019-05-10T05:52:01.660Z,12.24
2019-05-10T05:53:01.658Z,12.29
2019-05-10T05:54:03.965Z,12.31
2019-05-10T05:55:01.606Z,12.31
2019-05-10T05:56:03.084Z,12.34
2019-05-10T05:57:02.586Z,12.41
2019-05-10T05:58:04.708Z,12.48
2019-05-10T05:59:02.629Z,12.52
2019-05-10T06:00:04.042Z,12.56
2019-05-10T06:01:01.617Z,12.64
2019-05-10T06:02:07.569Z,12.69
2019-05-10T06:03:02.557Z,12.66
2019-05-10T06:04:06.484Z,12.64
2019-05-10T06:05:02.575Z,12.66
2019-05-10T06:06:01.533Z,12.67
2019-05-10T06:07:01.482Z,12.64
2019-05-10T06:08:01.562Z,12.60
2019-05-10T06:09:01.779Z,12.62
2019-05-10T06:10:01.451Z,12.59
2019-05-10T06:11:01.654Z,12.57
2019-05-10T06:12:01.416Z,12.56
2019-05-10T06:13:01.425Z,12.52
2019-05-10T06:14:03.914Z,12.48
2019-05-10T06:15:02.457Z,12.45
2019-05-10T06:16:06.233Z,12.38
2019-05-10T06:17:02.380Z,12.31
2019-05-10T06:18:03.210Z,12.31
2019-05-10T06:19:02.397Z,12.33
2019-05-10T06:20:06.008Z,12.33
2019-05-10T06:21:02.344Z,12.30
2019-05-10T06:22:04.644Z,12.33
2019-05-10T06:23:07.047Z,12.41
2019-05-10T06:24:07.651Z,12.49
2019-05-10T06:25:02.319Z,12.51
2019-05-10T06:26:01.275Z,12.48
2019-05-10T06:27:03.568Z,12.46
2019-05-10T06:28:01.280Z,12.51
2019-05-10T06:29:04.354Z,12.46
2019-05-10T06:30:01.251Z,12.45
2019-05-10T06:31:01.239Z,12.42
2019-05-10T06:32:01.524Z,12.41
2019-05-10T06:33:11.990Z,12.41
2019-05-10T06:34:02.300Z,12.38
2019-05-10T06:35:02.441Z,12.34
2019-05-10T06:36:01.372Z,12.34
2019-05-10T06:37:01.146Z,12.31
2019-05-10T06:38:01.136Z,12.23
2019-05-10T06:39:01.171Z,12.16
2019-05-10T06:40:01.172Z,12.13
2019-05-10T06:41:01.182Z,12.12
2019-05-10T06:42:01.111Z,12.13
2019-05-10T06:43:01.208Z,12.11
2019-05-10T06:44:01.092Z,12.08
2019-05-10T06:45:04.948Z,12.09
2019-05-10T06:46:02.076Z,12.09
2019-05-10T06:47:02.182Z,12.13
2019-05-10T06:48:02.041Z,12.15
2019-05-10T06:49:07.605Z,12.15
2019-05-10T06:50:02.054Z,12.20
2019-05-10T06:51:02.878Z,12.21
2019-05-10T06:52:01.991Z,12.19
2019-05-10T06:53:07.757Z,12.20
2019-05-10T06:54:02.112Z,12.23
2019-05-10T06:55:00.958Z,12.23
2019-05-10T06:56:00.944Z,12.26
2019-05-10T06:57:02.016Z,12.26
2019-05-10T06:58:01.870Z,12.27
2019-05-10T06:59:13.022Z,12.29
2019-05-10T07:00:06.180Z,12.27
2019-05-10T07:01:45.883Z,12.24
2019-05-10T07:02:01.883Z,12.21
2019-05-10T07:03:00.863Z,12.21
2019-05-10T07:04:00.880Z,12.20
2019-05-10T07:05:00.848Z,12.24
2019-05-10T07:06:00.879Z,12.30
2019-05-10T07:07:00.890Z,12.34
2019-05-10T07:08:13.924Z,12.39
2019-05-10T07:09:01.825Z,12.44
2019-05-10T07:10:08.658Z,12.44
2019-05-10T07:11:01.941Z,12.46
2019-05-10T07:12:00.815Z,12.46
2019-05-10T07:13:03.410Z,12.51
2019-05-10T07:14:01.801Z,12.59
2019-05-10T07:15:03.326Z,12.60
2019-05-10T07:16:00.715Z,12.64
2019-05-10T07:17:02.612Z,12.63
2019-05-10T07:18:00.749Z,12.69
2019-05-10T07:19:02.161Z,12.69
2019-05-10T07:20:00.781Z,12.71
2019-05-10T07:21:06.150Z,12.78
2019-05-10T07:22:01.750Z,12.87
2019-05-10T07:23:06.295Z,12.93
2019-05-10T07:24:01.734Z,12.96
2019-05-10T07:25:04.072Z,13.03
2019-05-10T07:26:00.612Z,13.09
2019-05-10T07:27:02.131Z,13.15
2019-05-10T07:28:00.607Z,13.18
2019-05-10T07:29:00.833Z,13.18
2019-05-10T07:30:00.675Z,13.22
2019-05-10T07:31:00.640Z,13.18
2019-05-10T07:32:00.547Z,13.11
2019-05-10T07:33:02.043Z,13.07
2019-05-10T07:34:00.605Z,13.03
2019-05-10T07:35:01.103Z,12.99
2019-05-10T07:36:00.730Z,12.89
2019-05-10T07:37:01.937Z,12.78
2019-05-10T07:38:00.540Z,12.71
2019-05-10T07:39:02.835Z,12.66
2019-05-10T07:40:03.596Z,12.60
2019-05-10T07:41:00.444Z,12.49
2019-05-10T07:42:06.342Z,12.42
2019-05-10T07:43:01.445Z,12.39
2019-05-10T07:44:07.517Z,11.97
2019-05-10T07:45:01.441Z,11.43
2019-05-10T07:46:06.155Z,10.98
2019-05-10T07:47:01.373Z,10.71
2019-05-10T07:48:02.552Z,10.44
2019-05-10T07:49:01.353Z,10.25
2019-05-10T07:50:03.857Z,10.06
2019-05-10T07:51:01.365Z,9.97
2019-05-10T07:52:02.130Z,9.93
2019-05-10T07:53:00.428Z,9.91
2019-05-10T07:54:04.548Z,9.94
2019-05-10T07:55:01.362Z,9.97
2019-05-10T07:56:06.092Z,9.91
2019-05-10T07:57:01.282Z,9.82
2019-05-10T07:58:05.241Z,9.79
2019-05-10T07:59:01.276Z,9.75
2019-05-10T08:00:03.754Z,9.71
2019-05-10T08:01:01.609Z,9.71
2019-05-10T08:02:06.098Z,9.71
2019-05-10T08:03:11.854Z,9.73
2019-05-10T08:04:01.192Z,9.75
2019-05-10T08:05:04.871Z,9.71
2019-05-10T08:06:02.134Z,9.71
2019-05-10T08:07:00.235Z,9.70
2019-05-10T08:08:00.151Z,9.70
2019-05-10T08:09:01.856Z,9.66
2019-05-10T08:10:04.620Z,9.68
2019-05-10T08:11:00.112Z,9.68
2019-05-10T08:12:04.939Z,9.67
2019-05-10T08:13:03.589Z,9.73
2019-05-10T08:14:06.025Z,9.79
2019-05-10T08:15:01.078Z,9.86
2019-05-10T08:16:00.091Z,10.01
2019-05-10T08:17:05.904Z,10.04
2019-05-10T08:18:01.042Z,10.18
2019-05-10T08:19:00.943Z,10.28
2019-05-10T08:20:00.044Z,10.33
2019-05-10T08:21:03.368Z,10.40
2019-05-10T08:22:04.323Z,10.52
2019-05-10T08:23:02.688Z,10.56
2019-05-10T08:24:05.128Z,10.63
2019-05-10T08:25:02.322Z,10.73
2019-05-10T08:25:59.983Z,10.81
2019-05-10T08:27:07.949Z,10.92
2019-05-10T08:28:05.311Z,10.95
2019-05-10T08:29:02.130Z,11.06
2019-05-10T08:31:02.501Z,11.19
2019-05-10T08:31:59.928Z,11.24
2019-05-10T08:33:00.201Z,11.28
2019-05-10T08:34:02.229Z,11.34
2019-05-10T08:34:59.844Z,11.49
2019-05-10T08:36:04.967Z,11.65
2019-05-10T08:37:02.563Z,11.83
2019-05-10T08:37:59.854Z,11.99
2019-05-10T08:39:07.613Z,12.19
2019-05-10T08:40:03.157Z,12.31
2019-05-10T08:40:59.774Z,12.46
2019-05-10T08:42:08.823Z,12.56
2019-05-10T08:43:07.194Z,12.52
2019-05-10T08:44:04.577Z,12.48
2019-05-10T08:45:05.494Z,12.48
2019-05-10T08:46:02.637Z,12.49
2019-05-10T08:47:02.117Z,12.59
2019-05-10T08:48:05.009Z,12.62
2019-05-10T08:49:02.059Z,12.62
2019-05-10T08:50:18.449Z,12.67
2019-05-10T08:51:05.603Z,12.70
2019-05-10T08:52:02.500Z,12.71
2019-05-10T08:53:04.296Z,12.79
2019-05-10T08:54:01.785Z,12.93
2019-05-10T08:54:59.660Z,13.07
2019-05-10T08:56:01.950Z,13.24
2019-05-10T08:58:08.474Z,13.51
2019-05-10T08:59:09.315Z,13.54
2019-05-10T09:00:09.478Z,13.51
2019-05-10T09:01:20.093Z,13.56
2019-05-10T09:02:09.432Z,13.69
2019-05-10T09:03:09.774Z,13.80
2019-05-10T09:04:13.183Z,13.89
2019-05-10T09:05:12.266Z,13.96
2019-05-10T09:06:12.020Z,13.84
2019-05-10T09:07:11.726Z,13.58
2019-05-10T09:08:13.677Z,13.47
2019-05-10T09:09:09.375Z,13.49
2019-05-10T09:10:09.687Z,13.56
2019-05-10T09:11:08.333Z,13.59
2019-05-10T09:12:09.341Z,13.63
2019-05-10T09:13:08.302Z,13.65
2019-05-10T09:14:12.267Z,13.69
2019-05-10T09:15:10.334Z,13.71
2019-05-10T09:16:08.271Z,13.73
2019-05-10T09:17:08.302Z,13.76
2019-05-10T09:18:08.261Z,13.77
2019-05-10T09:19:08.237Z,13.74
2019-05-10T09:20:12.015Z,13.69
2019-05-10T09:21:10.793Z,13.77
2019-05-10T09:22:08.206Z,13.84
2019-05-10T09:23:08.600Z,13.91
2019-05-10T09:24:09.185Z,13.92
2019-05-10T09:25:08.183Z,13.96
2019-05-10T09:26:12.020Z,14.06
2019-05-10T09:27:09.153Z,14.12
2019-05-10T09:28:11.585Z,14.21
2019-05-10T09:29:09.129Z,14.27
2019-05-10T09:30:13.039Z,14.37
2019-05-10T09:31:18.839Z,14.46
2019-05-10T09:32:09.093Z,14.43
2019-05-10T09:33:09.017Z,14.44
2019-05-10T09:34:08.076Z,14.39
2019-05-10T09:35:09.341Z,14.38
2019-05-10T09:36:08.052Z,14.39
2019-05-10T09:37:13.135Z,14.43
2019-05-10T09:38:09.025Z,14.42
2019-05-10T09:39:09.207Z,14.38
2019-05-10T09:40:10.044Z,14.32
2019-05-10T09:41:08.005Z,14.21
2019-05-10T09:42:11.042Z,14.16
2019-05-10T09:43:09.854Z,14.04
2019-05-10T09:44:08.006Z,14.01
2019-05-10T09:45:09.823Z,13.96
2019-05-10T09:46:07.935Z,13.92
2019-05-10T09:47:07.935Z,13.88
2019-05-10T09:48:07.938Z,13.87
2019-05-10T09:49:15.617Z,13.77
2019-05-10T09:50:08.927Z,13.70
2019-05-10T09:51:07.906Z,13.63
2019-05-10T09:52:12.697Z,13.56
2019-05-10T09:53:10.440Z,13.54
2019-05-10T09:54:07.895Z,13.55
2019-05-10T09:55:12.378Z,13.61
2019-05-10T09:56:08.850Z,13.71
2019-05-10T09:57:08.265Z,13.83
2019-05-10T09:58:08.538Z,13.96
2019-05-10T09:59:08.590Z,14.12
2019-05-10T10:00:07.921Z,14.17
2019-05-10T10:01:17.021Z,14.24
2019-05-10T10:02:14.513Z,14.32
2019-05-10T10:03:08.778Z,14.29
2019-05-10T10:04:07.775Z,14.37
2019-05-10T10:05:08.739Z,14.43
2019-05-10T10:06:11.141Z,14.49
2019-05-10T10:07:07.716Z,14.54
2019-05-10T10:08:09.230Z,14.50
2019-05-10T10:09:10.858Z,14.47
2019-05-10T10:10:12.309Z,14.44
2019-05-10T10:11:15.082Z,14.42
2019-05-10T10:12:08.697Z,14.37
2019-05-10T10:13:13.205Z,14.27
2019-05-10T10:14:10.181Z,14.12
2019-05-10T10:15:09.976Z,13.95
2019-05-10T10:16:10.193Z,13.81
2019-05-10T10:17:08.605Z,13.79
2019-05-10T10:18:07.606Z,13.88
2019-05-10T10:19:07.606Z,14.04
2019-05-10T10:20:08.379Z,14.27
2019-05-10T10:21:10.181Z,14.42
2019-05-10T10:22:11.122Z,14.57
2019-05-10T10:23:08.566Z,14.71
2019-05-10T10:24:15.730Z,14.78
2019-05-10T10:25:08.599Z,14.93
2019-05-10T10:26:07.573Z,15.12
2019-05-10T10:27:07.563Z,15.19
2019-05-10T10:28:16.460Z,15.23
2019-05-10T10:29:08.465Z,15.24
2019-05-10T10:30:12.651Z,15.12
2019-05-10T10:31:08.653Z,15.03
2019-05-10T10:32:08.030Z,14.86
2019-05-10T10:33:11.498Z,14.25
2019-05-10T10:34:08.414Z,14.06
2019-05-10T10:35:08.062Z,14.01
2019-05-10T10:36:10.378Z,13.81
2019-05-10T10:37:07.947Z,13.51
2019-05-10T10:38:08.104Z,13.27
2019-05-10T10:39:07.564Z,13.03
2019-05-10T10:40:08.701Z,12.87
2019-05-10T10:41:08.215Z,12.75
2019-05-10T10:42:08.940Z,12.62
2019-05-10T10:43:08.329Z,12.51
2019-05-10T10:44:08.365Z,12.45
2019-05-10T10:45:07.477Z,12.45
2019-05-10T10:46:11.909Z,12.44
2019-05-10T10:47:08.431Z,12.41
2019-05-10T10:48:12.585Z,12.41
2019-05-10T10:49:10.405Z,12.38
2019-05-10T10:50:09.085Z,12.38
2019-05-10T10:51:08.255Z,12.41
2019-05-10T10:52:11.177Z,12.45
2019-05-10T10:53:08.221Z,12.54
2019-05-10T10:54:07.517Z,12.60
2019-05-10T10:55:11.219Z,12.70
2019-05-10T10:56:08.371Z,12.77
2019-05-10T10:57:08.008Z,12.70
2019-05-10T10:58:07.554Z,12.77
2019-05-10T10:59:07.640Z,12.79
2019-05-10T11:00:07.761Z,12.70
2019-05-10T11:01:10.804Z,12.63
2019-05-10T11:02:31.561Z,12.62
2019-05-10T11:03:08.287Z,12.59
2019-05-10T11:04:08.296Z,12.56
2019-05-10T11:05:07.067Z,12.67
2019-05-10T11:06:07.077Z,12.57
2019-05-10T11:07:10.495Z,12.54
2019-05-10T11:08:07.144Z,12.52
2019-05-10T11:09:07.161Z,12.56
2019-05-10T11:10:15.335Z,12.60
2019-05-10T11:11:10.537Z,12.63
2019-05-10T11:12:06.989Z,12.66
2019-05-10T11:13:12.092Z,12.74
2019-05-10T11:14:07.976Z,12.89
2019-05-10T11:15:06.967Z,13.06
2019-05-10T11:16:14.222Z,13.11
2019-05-10T11:17:07.940Z,13.12
2019-05-10T11:18:06.927Z,13.14
2019-05-10T11:19:11.157Z,13.00
2019-05-10T11:20:09.271Z,12.95
2019-05-10T11:21:06.919Z,12.96
2019-05-10T11:22:09.480Z,13.04
2019-05-10T11:23:06.884Z,13.06
2019-05-10T11:24:10.516Z,13.15
2019-05-10T11:25:10.412Z,13.17
2019-05-10T11:26:06.969Z,13.14
2019-05-10T11:27:07.127Z,13.02
2019-05-10T11:28:09.240Z,12.97
2019-05-10T11:29:06.808Z,12.99
2019-05-10T11:30:06.805Z,13.04
2019-05-10T11:31:06.997Z,13.06
2019-05-10T11:32:15.924Z,13.14
2019-05-10T11:33:22.847Z,13.22
2019-05-10T11:34:07.763Z,13.33
2019-05-10T11:35:06.745Z,13.44
2019-05-10T11:36:08.761Z,13.51
2019-05-10T11:37:06.744Z,13.55
2019-05-10T11:38:11.779Z,13.62
2019-05-10T11:39:21.497Z,13.59
2019-05-10T11:40:07.733Z,13.70
2019-05-10T11:41:07.063Z,13.91
2019-05-10T11:42:07.677Z,14.01
2019-05-10T11:43:06.662Z,14.06
2019-05-10T11:44:08.942Z,13.99
2019-05-10T11:45:07.944Z,14.01
2019-05-10T11:46:06.615Z,13.94
2019-05-10T11:47:22.523Z,13.83
2019-05-10T11:48:07.637Z,13.56
2019-05-10T11:49:06.599Z,13.38
2019-05-10T11:50:06.727Z,13.27
2019-05-10T11:51:12.254Z,13.32
2019-05-10T11:52:10.086Z,13.47
2019-05-10T11:53:13.253Z,13.63
2019-05-10T11:54:07.610Z,13.87
2019-05-10T11:55:06.585Z,14.01
2019-05-10T11:56:07.916Z,14.16
2019-05-10T11:59:03.771Z,14.37
2019-05-10T11:59:04.404Z,14.57
2019-05-10T11:59:07.489Z,14.65
2019-05-10T12:00:14.715Z,14.60
2019-05-10T12:01:14.799Z,14.64
2019-05-10T12:02:10.287Z,14.57
2019-05-10T12:03:12.486Z,14.57
2019-05-10T12:04:13.125Z,14.49
2019-05-10T12:05:16.628Z,14.54
2019-05-10T12:06:09.055Z,14.44
2019-05-10T12:07:09.823Z,14.42
2019-05-10T12:08:07.378Z,14.38
2019-05-10T12:09:06.361Z,14.49
2019-05-10T12:10:17.018Z,14.43
2019-05-10T12:11:14.068Z,14.44
2019-05-10T12:12:07.393Z,14.43
2019-05-10T12:13:16.323Z,14.44
2019-05-10T12:14:07.321Z,14.34
2019-05-10T12:15:06.311Z,14.32
2019-05-10T12:16:06.297Z,14.42
2019-05-10T12:17:06.727Z,14.44
2019-05-10T12:18:06.283Z,14.43
2019-05-10T12:19:15.868Z,14.39
2019-05-10T12:20:07.248Z,14.38
2019-05-10T12:21:09.731Z,14.46
2019-05-10T12:22:07.270Z,14.50
2019-05-10T12:23:13.238Z,14.54
2019-05-10T12:24:26.308Z,14.57
2019-05-10T12:26:05.803Z,14.56
2019-05-10T12:27:18.988Z,14.65
2019-05-10T12:28:07.168Z,14.68
2019-05-10T12:29:12.055Z,14.81
2019-05-10T12:30:07.158Z,14.84
2019-05-10T12:31:07.599Z,14.84
2019-05-10T12:32:07.139Z,14.86
2019-05-10T12:33:09.710Z,14.83
2019-05-10T12:34:10.079Z,14.84
2019-05-10T12:35:07.097Z,14.81
2019-05-10T12:36:13.042Z,14.83
2019-05-10T12:37:08.351Z,14.90
2019-05-10T12:38:06.320Z,14.90
2019-05-10T12:39:06.035Z,14.87
2019-05-10T12:40:14.060Z,15.01
2019-05-10T12:41:07.015Z,15.08
2019-05-10T12:42:06.051Z,15.17
2019-05-10T12:43:06.022Z,15.23
2019-05-10T12:44:07.406Z,15.26
2019-05-10T12:45:05.995Z,15.36
2019-05-10T12:46:05.959Z,15.48
2019-05-10T12:47:05.982Z,15.59
2019-05-10T12:48:05.960Z,15.68
2019-05-10T12:49:05.927Z,15.68
2019-05-10T12:50:05.919Z,15.60
2019-05-10T12:51:11.421Z,15.36
2019-05-10T12:52:09.166Z,15.39
2019-05-10T12:53:13.831Z,15.36
2019-05-10T12:54:06.881Z,15.31
2019-05-10T12:55:05.870Z,15.20
2019-05-10T12:56:05.873Z,15.09
2019-05-10T12:57:05.971Z,15.03
2019-05-10T12:58:05.857Z,14.94
2019-05-10T12:59:05.821Z,14.93
2019-05-10T13:00:12.921Z,14.91